sensor_id;sensor_type;location;lat;lon;timestamp;temperature;humidity
5461;DHT22;2753;49.196;8.286;2023-03-01T00:01:52;1.20;83.60
5461;DHT22;2753;49.196;8.286;2023-03-01T00:04:18;1.20;83.20
5461;DHT22;2753;49.196;8.286;2023-03-01T00:06:44;1.20;83.20
5461;DHT22;2753;49.196;8.286;2023-03-01T00:09:14;1.20;83.30
5461;DHT22;2753;49.196;8.286;2023-03-01T00:11:40;1.10;83.40
5461;DHT22;2753;49.196;8.286;2023-03-01T00:14:05;1.20;83.70
5461;DHT22;2753;49.196;8.286;2023-03-01T00:16:38;1.10;83.50
5461;DHT22;2753;49.196;8.286;2023-03-01T00:19:05;1.10;83.40
5461;DHT22;2753;49.196;8.286;2023-03-01T00:21:31;1.10;83.40
5461;DHT22;2753;49.196;8.286;2023-03-01T00:23:58;1.10;83.60
5461;DHT22;2753;49.196;8.286;2023-03-01T00:26:25;1.10;83.70
5461;DHT22;2753;49.196;8.286;2023-03-01T00:28:51;1.10;83.50
5461;DHT22;2753;49.196;8.286;2023-03-01T00:31:20;1.10;83.70
5461;DHT22;2753;49.196;8.286;2023-03-01T00:33:46;1.00;83.90
5461;DHT22;2753;49.196;8.286;2023-03-01T00:36:13;1.00;84.20
5461;DHT22;2753;49.196;8.286;2023-03-01T00:38:42;1.00;84.50
5461;DHT22;2753;49.196;8.286;2023-03-01T00:41:11;0.90;84.40
5461;DHT22;2753;49.196;8.286;2023-03-01T00:43:37;1.00;84.50
5461;DHT22;2753;49.196;8.286;2023-03-01T00:46:10;0.90;84.60
5461;DHT22;2753;49.196;8.286;2023-03-01T00:48:36;0.90;85.10
5461;DHT22;2753;49.196;8.286;2023-03-01T00:51:06;0.90;85.00
5461;DHT22;2753;49.196;8.286;2023-03-01T00:53:32;0.80;85.40
5461;DHT22;2753;49.196;8.286;2023-03-01T00:55:58;0.80;85.70
5461;DHT22;2753;49.196;8.286;2023-03-01T00:58:25;0.80;85.50
5461;DHT22;2753;49.196;8.286;2023-03-01T01:00:51;0.80;85.40
5461;DHT22;2753;49.196;8.286;2023-03-01T01:03:18;0.80;85.40
5461;DHT22;2753;49.196;8.286;2023-03-01T01:05:44;0.80;85.80
5461;DHT22;2753;49.196;8.286;2023-03-01T01:08:09;0.70;85.80
5461;DHT22;2753;49.196;8.286;2023-03-01T01:10:35;0.70;85.60
5461;DHT22;2753;49.196;8.286;2023-03-01T01:13:01;0.70;85.60
5461;DHT22;2753;49.196;8.286;2023-03-01T01:15:26;0.60;86.10
5461;DHT22;2753;49.196;8.286;2023-03-01T01:17:52;0.60;86.30
5461;DHT22;2753;49.196;8.286;2023-03-01T01:20:18;0.60;86.70
5461;DHT22;2753;49.196;8.286;2023-03-01T01:22:44;0.60;86.60
5461;DHT22;2753;49.196;8.286;2023-03-01T01:25:09;0.50;86.50
5461;DHT22;2753;49.196;8.286;2023-03-01T01:27:36;0.60;86.40
5461;DHT22;2753;49.196;8.286;2023-03-01T01:30:02;0.60;86.90
5461;DHT22;2753;49.196;8.286;2023-03-01T01:32:28;0.60;86.80
5461;DHT22;2753;49.196;8.286;2023-03-01T01:34:54;0.50;86.50
5461;DHT22;2753;49.196;8.286;2023-03-01T01:37:20;0.40;86.40
5461;DHT22;2753;49.196;8.286;2023-03-01T01:39:46;0.50;86.60
5461;DHT22;2753;49.196;8.286;2023-03-01T01:42:15;0.50;86.90
5461;DHT22;2753;49.196;8.286;2023-03-01T01:45:35;0.50;86.40
5461;DHT22;2753;49.196;8.286;2023-03-01T01:47:57;0.50;86.90
5461;DHT22;2753;49.196;8.286;2023-03-01T01:50:24;0.50;87.10
5461;DHT22;2753;49.196;8.286;2023-03-01T01:52:51;0.40;87.20
5461;DHT22;2753;49.196;8.286;2023-03-01T01:55:20;0.40;87.30
5461;DHT22;2753;49.196;8.286;2023-03-01T01:57:56;0.40;87.40
5461;DHT22;2753;49.196;8.286;2023-03-01T02:00:26;0.40;87.40
5461;DHT22;2753;49.196;8.286;2023-03-01T02:03:14;0.40;87.20
5461;DHT22;2753;49.196;8.286;2023-03-01T02:08:22;0.40;87.40
5461;DHT22;2753;49.196;8.286;2023-03-01T02:10:49;0.30;87.50
5461;DHT22;2753;49.196;8.286;2023-03-01T02:13:16;0.30;87.80
5461;DHT22;2753;49.196;8.286;2023-03-01T02:15:42;0.30;88.10
5461;DHT22;2753;49.196;8.286;2023-03-01T02:18:14;0.30;88.10
5461;DHT22;2753;49.196;8.286;2023-03-01T02:23:14;0.30;88.30
5461;DHT22;2753;49.196;8.286;2023-03-01T02:26:04;0.20;88.20
5461;DHT22;2753;49.196;8.286;2023-03-01T02:28:37;0.20;88.10
5461;DHT22;2753;49.196;8.286;2023-03-01T02:31:05;0.20;88.30
5461;DHT22;2753;49.196;8.286;2023-03-01T02:33:51;0.20;88.50
5461;DHT22;2753;49.196;8.286;2023-03-01T02:36:23;0.20;88.80
5461;DHT22;2753;49.196;8.286;2023-03-01T02:38:52;0.10;88.70
5461;DHT22;2753;49.196;8.286;2023-03-01T02:41:20;0.10;88.70
5461;DHT22;2753;49.196;8.286;2023-03-01T02:43:46;0.10;88.60
5461;DHT22;2753;49.196;8.286;2023-03-01T02:46:21;0.10;88.70
5461;DHT22;2753;49.196;8.286;2023-03-01T02:48:58;0.10;88.80
5461;DHT22;2753;49.196;8.286;2023-03-01T02:54:42;0.10;89.60
5461;DHT22;2753;49.196;8.286;2023-03-01T02:57:08;0.10;89.40
5461;DHT22;2753;49.196;8.286;2023-03-01T02:59:36;0.10;89.80
5461;DHT22;2753;49.196;8.286;2023-03-01T03:02:06;0.10;90.00
5461;DHT22;2753;49.196;8.286;2023-03-01T03:04:31;0.00;89.70
5461;DHT22;2753;49.196;8.286;2023-03-01T03:06:57;0.00;89.50
5461;DHT22;2753;49.196;8.286;2023-03-01T03:09:23;0.00;89.60
5461;DHT22;2753;49.196;8.286;2023-03-01T03:11:49;0.00;89.50
5461;DHT22;2753;49.196;8.286;2023-03-01T03:14:16;0.00;89.30
5461;DHT22;2753;49.196;8.286;2023-03-01T03:16:44;0.00;89.50
5461;DHT22;2753;49.196;8.286;2023-03-01T03:19:10;0.00;89.90
5461;DHT22;2753;49.196;8.286;2023-03-01T03:21:36;-0.10;89.50
5461;DHT22;2753;49.196;8.286;2023-03-01T03:24:03;-0.10;89.70
5461;DHT22;2753;49.196;8.286;2023-03-01T03:26:29;-0.10;89.80
5461;DHT22;2753;49.196;8.286;2023-03-01T03:28:55;-0.20;89.80
5461;DHT22;2753;49.196;8.286;2023-03-01T03:31:20;-0.20;90.10
5461;DHT22;2753;49.196;8.286;2023-03-01T03:33:46;-0.20;90.20
5461;DHT22;2753;49.196;8.286;2023-03-01T03:36:21;-0.20;90.10
5461;DHT22;2753;49.196;8.286;2023-03-01T03:38:47;-0.20;90.10
5461;DHT22;2753;49.196;8.286;2023-03-01T03:41:12;-0.20;90.20
5461;DHT22;2753;49.196;8.286;2023-03-01T03:43:39;-0.20;90.50
5461;DHT22;2753;49.196;8.286;2023-03-01T03:46:06;-0.30;90.50
5461;DHT22;2753;49.196;8.286;2023-03-01T03:48:41;-0.30;90.60
5461;DHT22;2753;49.196;8.286;2023-03-01T03:51:10;-0.30;90.60
5461;DHT22;2753;49.196;8.286;2023-03-01T03:53:36;-0.30;90.80
5461;DHT22;2753;49.196;8.286;2023-03-01T03:56:01;-0.30;91.00
5461;DHT22;2753;49.196;8.286;2023-03-01T03:58:27;-0.30;90.70
5461;DHT22;2753;49.196;8.286;2023-03-01T04:00:55;-0.30;90.80
5461;DHT22;2753;49.196;8.286;2023-03-01T04:03:25;-0.40;90.70
5461;DHT22;2753;49.196;8.286;2023-03-01T04:05:51;-0.40;90.80
5461;DHT22;2753;49.196;8.286;2023-03-01T04:08:18;-0.40;90.90
5461;DHT22;2753;49.196;8.286;2023-03-01T04:10:50;-0.40;90.80
5461;DHT22;2753;49.196;8.286;2023-03-01T04:13:21;-0.40;90.80
5461;DHT22;2753;49.196;8.286;2023-03-01T04:15:52;-0.40;91.00
5461;DHT22;2753;49.196;8.286;2023-03-01T04:18:19;-0.40;90.90
5461;DHT22;2753;49.196;8.286;2023-03-01T04:20:45;-0.40;91.00
5461;DHT22;2753;49.196;8.286;2023-03-01T04:23:16;-0.40;90.90
5461;DHT22;2753;49.196;8.286;2023-03-01T04:25:56;-0.40;90.90
5461;DHT22;2753;49.196;8.286;2023-03-01T04:28:28;-0.50;91.10
5461;DHT22;2753;49.196;8.286;2023-03-01T04:30:55;-0.50;91.20
5461;DHT22;2753;49.196;8.286;2023-03-01T04:33:22;-0.50;91.20
5461;DHT22;2753;49.196;8.286;2023-03-01T04:35:48;-0.50;91.30
5461;DHT22;2753;49.196;8.286;2023-03-01T04:38:18;-0.50;91.40
5461;DHT22;2753;49.196;8.286;2023-03-01T04:40:45;-0.50;91.30
5461;DHT22;2753;49.196;8.286;2023-03-01T04:43:11;-0.50;91.50
5461;DHT22;2753;49.196;8.286;2023-03-01T04:45:38;-0.50;91.50
5461;DHT22;2753;49.196;8.286;2023-03-01T04:48:04;-0.50;91.50
5461;DHT22;2753;49.196;8.286;2023-03-01T04:50:30;-0.50;91.50
5461;DHT22;2753;49.196;8.286;2023-03-01T04:52:56;-0.50;91.70
5461;DHT22;2753;49.196;8.286;2023-03-01T04:55:26;-0.50;91.70
5461;DHT22;2753;49.196;8.286;2023-03-01T04:57:53;-0.60;91.40
5461;DHT22;2753;49.196;8.286;2023-03-01T05:00:19;-0.60;91.50
5461;DHT22;2753;49.196;8.286;2023-03-01T05:03:05;-0.50;91.50
5461;DHT22;2753;49.196;8.286;2023-03-01T05:05:35;-0.50;91.50
5461;DHT22;2753;49.196;8.286;2023-03-01T05:08:05;-0.60;91.50
5461;DHT22;2753;49.196;8.286;2023-03-01T05:10:33;-0.60;91.40
5461;DHT22;2753;49.196;8.286;2023-03-01T05:13:01;-0.50;91.50
5461;DHT22;2753;49.196;8.286;2023-03-01T05:15:28;-0.50;91.40
5461;DHT22;2753;49.196;8.286;2023-03-01T05:17:55;-0.60;91.40
5461;DHT22;2753;49.196;8.286;2023-03-01T05:20:23;-0.60;91.40
5461;DHT22;2753;49.196;8.286;2023-03-01T05:22:50;-0.60;91.80
5461;DHT22;2753;49.196;8.286;2023-03-01T05:25:16;-0.60;91.70
5461;DHT22;2753;49.196;8.286;2023-03-01T05:27:42;-0.60;91.80
5461;DHT22;2753;49.196;8.286;2023-03-01T05:30:09;-0.60;91.80
5461;DHT22;2753;49.196;8.286;2023-03-01T05:32:42;-0.70;91.80
5461;DHT22;2753;49.196;8.286;2023-03-01T05:35:10;-0.70;91.70
5461;DHT22;2753;49.196;8.286;2023-03-01T05:37:39;-0.70;91.70
5461;DHT22;2753;49.196;8.286;2023-03-01T05:40:05;-0.80;91.70
5461;DHT22;2753;49.196;8.286;2023-03-01T05:42:33;-0.80;91.90
5461;DHT22;2753;49.196;8.286;2023-03-01T05:44:58;-0.80;91.90
5461;DHT22;2753;49.196;8.286;2023-03-01T05:47:24;-0.80;91.90
5461;DHT22;2753;49.196;8.286;2023-03-01T05:49:50;-0.80;92.10
5461;DHT22;2753;49.196;8.286;2023-03-01T05:52:15;-0.80;92.10
5461;DHT22;2753;49.196;8.286;2023-03-01T05:54:41;-0.80;92.10
5461;DHT22;2753;49.196;8.286;2023-03-01T05:57:06;-0.80;92.20
5461;DHT22;2753;49.196;8.286;2023-03-01T05:59:32;-0.80;92.40
5461;DHT22;2753;49.196;8.286;2023-03-01T06:01:58;-0.80;92.20
5461;DHT22;2753;49.196;8.286;2023-03-01T06:04:23;-0.80;92.40
5461;DHT22;2753;49.196;8.286;2023-03-01T06:06:49;-0.80;92.30
5461;DHT22;2753;49.196;8.286;2023-03-01T06:09:15;-0.80;92.30
5461;DHT22;2753;49.196;8.286;2023-03-01T06:11:41;-0.80;92.20
5461;DHT22;2753;49.196;8.286;2023-03-01T06:14:08;-0.80;92.30
5461;DHT22;2753;49.196;8.286;2023-03-01T06:16:33;-0.80;92.20
5461;DHT22;2753;49.196;8.286;2023-03-01T06:18:59;-0.80;92.20
5461;DHT22;2753;49.196;8.286;2023-03-01T06:21:25;-0.80;92.40
5461;DHT22;2753;49.196;8.286;2023-03-01T06:23:50;-0.80;92.50
5461;DHT22;2753;49.196;8.286;2023-03-01T06:26:17;-0.80;92.40
5461;DHT22;2753;49.196;8.286;2023-03-01T06:28:43;-0.80;92.30
5461;DHT22;2753;49.196;8.286;2023-03-01T06:31:11;-0.80;92.50
5461;DHT22;2753;49.196;8.286;2023-03-01T06:33:36;-0.80;92.40
5461;DHT22;2753;49.196;8.286;2023-03-01T06:36:03;-0.80;92.70
5461;DHT22;2753;49.196;8.286;2023-03-01T06:38:29;-0.80;92.70
5461;DHT22;2753;49.196;8.286;2023-03-01T06:40:55;-0.80;92.70
5461;DHT22;2753;49.196;8.286;2023-03-01T06:43:22;-0.80;92.80
5461;DHT22;2753;49.196;8.286;2023-03-01T06:45:49;-0.70;92.90
5461;DHT22;2753;49.196;8.286;2023-03-01T06:48:14;-0.70;92.70
5461;DHT22;2753;49.196;8.286;2023-03-01T06:50:40;-0.70;92.50
5461;DHT22;2753;49.196;8.286;2023-03-01T06:53:06;-0.70;92.80
5461;DHT22;2753;49.196;8.286;2023-03-01T06:55:32;-0.70;92.90
5461;DHT22;2753;49.196;8.286;2023-03-01T06:57:59;-0.60;92.90
5461;DHT22;2753;49.196;8.286;2023-03-01T07:00:26;-0.60;92.80
5461;DHT22;2753;49.196;8.286;2023-03-01T07:02:52;-0.50;92.80
5461;DHT22;2753;49.196;8.286;2023-03-01T07:05:18;-0.50;92.80
5461;DHT22;2753;49.196;8.286;2023-03-01T07:07:43;-0.50;92.80
5461;DHT22;2753;49.196;8.286;2023-03-01T07:10:09;-0.40;93.00
5461;DHT22;2753;49.196;8.286;2023-03-01T07:12:35;-0.40;92.90
5461;DHT22;2753;49.196;8.286;2023-03-01T07:15:01;-0.30;92.90
5461;DHT22;2753;49.196;8.286;2023-03-01T07:17:27;-0.30;92.90
5461;DHT22;2753;49.196;8.286;2023-03-01T07:19:52;-0.20;92.90
5461;DHT22;2753;49.196;8.286;2023-03-01T07:22:18;-0.20;92.90
5461;DHT22;2753;49.196;8.286;2023-03-01T07:24:44;-0.20;92.80
5461;DHT22;2753;49.196;8.286;2023-03-01T07:27:10;-0.10;92.80
5461;DHT22;2753;49.196;8.286;2023-03-01T07:29:36;-0.10;92.90
5461;DHT22;2753;49.196;8.286;2023-03-01T07:32:03;0.00;92.80
5461;DHT22;2753;49.196;8.286;2023-03-01T07:34:28;0.00;92.70
5461;DHT22;2753;49.196;8.286;2023-03-01T07:36:54;0.00;92.70
5461;DHT22;2753;49.196;8.286;2023-03-01T07:39:21;0.10;92.70
5461;DHT22;2753;49.196;8.286;2023-03-01T07:41:48;0.20;92.70
5461;DHT22;2753;49.196;8.286;2023-03-01T07:44:14;0.30;92.80
5461;DHT22;2753;49.196;8.286;2023-03-01T07:46:41;0.30;92.70
5461;DHT22;2753;49.196;8.286;2023-03-01T07:49:07;0.50;92.80
5461;DHT22;2753;49.196;8.286;2023-03-01T07:51:33;0.60;93.00
5461;DHT22;2753;49.196;8.286;2023-03-01T07:53:59;0.60;92.50
5461;DHT22;2753;49.196;8.286;2023-03-01T07:56:24;0.80;92.50
5461;DHT22;2753;49.196;8.286;2023-03-01T07:58:50;1.00;92.40
5461;DHT22;2753;49.196;8.286;2023-03-01T08:01:18;1.00;92.40
5461;DHT22;2753;49.196;8.286;2023-03-01T08:03:44;1.10;92.30
5461;DHT22;2753;49.196;8.286;2023-03-01T08:06:12;1.30;92.20
5461;DHT22;2753;49.196;8.286;2023-03-01T08:08:38;1.40;92.00
5461;DHT22;2753;49.196;8.286;2023-03-01T08:11:05;1.40;91.90
5461;DHT22;2753;49.196;8.286;2023-03-01T08:13:31;1.50;91.80
5461;DHT22;2753;49.196;8.286;2023-03-01T08:16:02;1.70;91.80
5461;DHT22;2753;49.196;8.286;2023-03-01T08:18:28;1.80;91.60
5461;DHT22;2753;49.196;8.286;2023-03-01T08:20:53;1.90;91.10
5461;DHT22;2753;49.196;8.286;2023-03-01T08:23:19;2.10;91.00
5461;DHT22;2753;49.196;8.286;2023-03-01T08:25:45;2.20;90.90
5461;DHT22;2753;49.196;8.286;2023-03-01T08:28:10;2.20;91.00
5461;DHT22;2753;49.196;8.286;2023-03-01T08:30:36;2.30;90.90
5461;DHT22;2753;49.196;8.286;2023-03-01T08:33:01;2.40;90.70
5461;DHT22;2753;49.196;8.286;2023-03-01T08:35:27;2.40;90.80
5461;DHT22;2753;49.196;8.286;2023-03-01T08:37:53;2.50;90.40
5461;DHT22;2753;49.196;8.286;2023-03-01T08:40:18;2.60;90.50
5461;DHT22;2753;49.196;8.286;2023-03-01T08:42:44;2.70;90.60
5461;DHT22;2753;49.196;8.286;2023-03-01T08:45:10;2.80;90.60
5461;DHT22;2753;49.196;8.286;2023-03-01T08:47:36;2.90;90.40
5461;DHT22;2753;49.196;8.286;2023-03-01T08:50:03;3.00;89.30
5461;DHT22;2753;49.196;8.286;2023-03-01T08:52:29;3.10;89.50
5461;DHT22;2753;49.196;8.286;2023-03-01T08:54:56;3.10;88.40
5461;DHT22;2753;49.196;8.286;2023-03-01T08:57:22;3.20;88.70
5461;DHT22;2753;49.196;8.286;2023-03-01T08:59:47;3.20;89.80
5461;DHT22;2753;49.196;8.286;2023-03-01T09:02:17;3.40;88.70
5461;DHT22;2753;49.196;8.286;2023-03-01T09:04:43;3.50;88.40
5461;DHT22;2753;49.196;8.286;2023-03-01T09:07:10;3.60;86.70
5461;DHT22;2753;49.196;8.286;2023-03-01T09:09:36;3.60;86.00
5461;DHT22;2753;49.196;8.286;2023-03-01T09:12:03;3.60;85.10
5461;DHT22;2753;49.196;8.286;2023-03-01T09:14:29;3.70;85.60
5461;DHT22;2753;49.196;8.286;2023-03-01T09:16:55;3.80;85.10
5461;DHT22;2753;49.196;8.286;2023-03-01T09:19:20;3.80;84.40
5461;DHT22;2753;49.196;8.286;2023-03-01T09:21:46;3.80;83.90
5461;DHT22;2753;49.196;8.286;2023-03-01T09:24:20;3.80;84.20
5461;DHT22;2753;49.196;8.286;2023-03-01T09:26:46;3.90;84.10
5461;DHT22;2753;49.196;8.286;2023-03-01T09:29:13;4.00;83.70
5461;DHT22;2753;49.196;8.286;2023-03-01T09:31:40;4.10;83.90
5461;DHT22;2753;49.196;8.286;2023-03-01T09:34:06;4.20;83.70
5461;DHT22;2753;49.196;8.286;2023-03-01T09:36:32;4.30;83.10
5461;DHT22;2753;49.196;8.286;2023-03-01T09:38:58;4.30;82.30
5461;DHT22;2753;49.196;8.286;2023-03-01T09:42:00;4.20;81.90
5461;DHT22;2753;49.196;8.286;2023-03-01T09:47:28;4.60;82.30
5461;DHT22;2753;49.196;8.286;2023-03-01T09:50:11;4.60;81.30
5461;DHT22;2753;49.196;8.286;2023-03-01T09:55:31;4.90;81.40
5461;DHT22;2753;49.196;8.286;2023-03-01T10:00:46;5.20;81.10
5461;DHT22;2753;49.196;8.286;2023-03-01T10:03:30;5.20;79.80
5461;DHT22;2753;49.196;8.286;2023-03-01T10:06:12;5.30;79.60
5461;DHT22;2753;49.196;8.286;2023-03-01T10:08:58;5.50;80.50
5461;DHT22;2753;49.196;8.286;2023-03-01T10:11:30;5.80;79.70
5461;DHT22;2753;49.196;8.286;2023-03-01T10:14:05;5.90;79.20
5461;DHT22;2753;49.196;8.286;2023-03-01T10:19:32;5.90;78.40
5461;DHT22;2753;49.196;8.286;2023-03-01T10:22:24;6.10;78.80
5461;DHT22;2753;49.196;8.286;2023-03-01T10:24:54;6.10;77.30
5461;DHT22;2753;49.196;8.286;2023-03-01T10:27:40;6.20;77.10
5461;DHT22;2753;49.196;8.286;2023-03-01T10:30:18;6.40;77.20
5461;DHT22;2753;49.196;8.286;2023-03-01T10:32:46;6.50;76.60
5461;DHT22;2753;49.196;8.286;2023-03-01T10:35:22;6.40;76.20
5461;DHT22;2753;49.196;8.286;2023-03-01T10:38:10;6.50;76.80
5461;DHT22;2753;49.196;8.286;2023-03-01T10:40:49;6.80;76.10
5461;DHT22;2753;49.196;8.286;2023-03-01T10:43:14;6.70;75.50
5461;DHT22;2753;49.196;8.286;2023-03-01T10:45:40;7.00;76.00
5461;DHT22;2753;49.196;8.286;2023-03-01T10:50:35;6.80;74.20
5461;DHT22;2753;49.196;8.286;2023-03-01T10:53:04;6.90;74.50
5461;DHT22;2753;49.196;8.286;2023-03-01T10:55:40;6.90;74.10
5461;DHT22;2753;49.196;8.286;2023-03-01T10:58:19;6.90;74.60
5461;DHT22;2753;49.196;8.286;2023-03-01T11:00:56;7.20;74.90
5461;DHT22;2753;49.196;8.286;2023-03-01T11:03:28;7.20;73.90
5461;DHT22;2753;49.196;8.286;2023-03-01T11:11:12;7.90;73.40
5461;DHT22;2753;49.196;8.286;2023-03-01T11:13:52;7.90;72.70
5461;DHT22;2753;49.196;8.286;2023-03-01T11:16:25;7.90;71.90
5461;DHT22;2753;49.196;8.286;2023-03-01T11:24:31;8.10;71.90
5461;DHT22;2753;49.196;8.286;2023-03-01T11:27:03;8.20;71.30
5461;DHT22;2753;49.196;8.286;2023-03-01T11:29:37;8.10;70.30
5461;DHT22;2753;49.196;8.286;2023-03-01T11:32:07;8.20;70.30
5461;DHT22;2753;49.196;8.286;2023-03-01T11:34:57;8.40;71.30
5461;DHT22;2753;49.196;8.286;2023-03-01T11:37:59;8.40;70.90
5461;DHT22;2753;49.196;8.286;2023-03-01T11:40:35;8.70;70.00
5461;DHT22;2753;49.196;8.286;2023-03-01T11:43:36;8.70;69.50
5461;DHT22;2753;49.196;8.286;2023-03-01T11:56:52;9.40;68.60
5461;DHT22;2753;49.196;8.286;2023-03-01T12:07:27;9.40;67.00
5461;DHT22;2753;49.196;8.286;2023-03-01T12:18:25;9.40;66.20
5461;DHT22;2753;49.196;8.286;2023-03-01T12:26:31;9.90;67.00
5461;DHT22;2753;49.196;8.286;2023-03-01T12:29:22;9.40;64.70
5461;DHT22;2753;49.196;8.286;2023-03-01T12:32:20;9.40;65.50
5461;DHT22;2753;49.196;8.286;2023-03-01T12:48:37;9.80;65.30
5461;DHT22;2753;49.196;8.286;2023-03-01T12:51:11;9.80;64.40
5461;DHT22;2753;49.196;8.286;2023-03-01T12:53:45;9.90;64.50
5461;DHT22;2753;49.196;8.286;2023-03-01T12:56:15;9.70;65.20
5461;DHT22;2753;49.196;8.286;2023-03-01T12:58:51;9.40;66.00
5461;DHT22;2753;49.196;8.286;2023-03-01T13:01:36;9.60;65.50
5461;DHT22;2753;49.196;8.286;2023-03-01T13:07:30;10.50;65.30
5461;DHT22;2753;49.196;8.286;2023-03-01T13:13:33;10.60;62.70
5461;DHT22;2753;49.196;8.286;2023-03-01T13:16:20;10.80;61.50
5461;DHT22;2753;49.196;8.286;2023-03-01T13:18:47;11.70;62.60
5461;DHT22;2753;49.196;8.286;2023-03-01T13:21:29;12.20;62.00
5461;DHT22;2753;49.196;8.286;2023-03-01T13:23:55;11.80;60.40
5461;DHT22;2753;49.196;8.286;2023-03-01T13:26:21;11.70;62.50
5461;DHT22;2753;49.196;8.286;2023-03-01T13:28:56;11.60;60.40
5461;DHT22;2753;49.196;8.286;2023-03-01T13:33:58;11.00;61.20
5461;DHT22;2753;49.196;8.286;2023-03-01T13:46:45;10.40;63.30
5461;DHT22;2753;49.196;8.286;2023-03-01T13:49:15;10.70;62.20
5461;DHT22;2753;49.196;8.286;2023-03-01T13:51:46;10.80;62.60
5461;DHT22;2753;49.196;8.286;2023-03-01T13:54:12;11.20;63.70
5461;DHT22;2753;49.196;8.286;2023-03-01T13:56:40;10.70;61.10
5461;DHT22;2753;49.196;8.286;2023-03-01T13:59:17;11.10;62.90
5461;DHT22;2753;49.196;8.286;2023-03-01T14:01:43;10.60;61.30
5461;DHT22;2753;49.196;8.286;2023-03-01T14:04:22;10.60;61.40
5461;DHT22;2753;49.196;8.286;2023-03-01T14:06:48;10.70;61.50
5461;DHT22;2753;49.196;8.286;2023-03-01T14:09:26;10.70;61.90
5461;DHT22;2753;49.196;8.286;2023-03-01T14:23:11;11.50;60.10
5461;DHT22;2753;49.196;8.286;2023-03-01T14:25:38;10.80;60.00
5461;DHT22;2753;49.196;8.286;2023-03-01T14:30:51;11.20;62.60
5461;DHT22;2753;49.196;8.286;2023-03-01T14:38:28;11.50;59.50
5461;DHT22;2753;49.196;8.286;2023-03-01T14:40:58;10.80;59.70
5461;DHT22;2753;49.196;8.286;2023-03-01T14:43:25;11.40;61.40
5461;DHT22;2753;49.196;8.286;2023-03-01T14:45:52;11.80;59.40
5461;DHT22;2753;49.196;8.286;2023-03-01T14:48:18;11.50;59.50
5461;DHT22;2753;49.196;8.286;2023-03-01T14:50:45;11.30;58.70
5461;DHT22;2753;49.196;8.286;2023-03-01T14:53:23;11.40;59.40
5461;DHT22;2753;49.196;8.286;2023-03-01T14:55:59;11.30;59.00
5461;DHT22;2753;49.196;8.286;2023-03-01T14:58:28;11.50;60.00
5461;DHT22;2753;49.196;8.286;2023-03-01T15:00:56;11.80;60.20
5461;DHT22;2753;49.196;8.286;2023-03-01T15:03:32;11.40;58.90
5461;DHT22;2753;49.196;8.286;2023-03-01T15:06:01;11.70;60.50
5461;DHT22;2753;49.196;8.286;2023-03-01T15:08:28;11.10;60.50
5461;DHT22;2753;49.196;8.286;2023-03-01T15:11:31;11.20;59.50
5461;DHT22;2753;49.196;8.286;2023-03-01T15:14:40;11.30;59.10
5461;DHT22;2753;49.196;8.286;2023-03-01T15:17:36;11.70;59.80
5461;DHT22;2753;49.196;8.286;2023-03-01T15:20:29;11.50;59.10
5461;DHT22;2753;49.196;8.286;2023-03-01T15:23:01;11.00;59.30
5461;DHT22;2753;49.196;8.286;2023-03-01T15:25:28;11.10;59.80
5461;DHT22;2753;49.196;8.286;2023-03-01T15:27:56;11.10;59.40
5461;DHT22;2753;49.196;8.286;2023-03-01T15:30:34;11.20;59.50
5461;DHT22;2753;49.196;8.286;2023-03-01T15:35:54;11.00;59.80
5461;DHT22;2753;49.196;8.286;2023-03-01T15:41:02;11.10;60.00
5461;DHT22;2753;49.196;8.286;2023-03-01T15:43:45;10.90;59.70
5461;DHT22;2753;49.196;8.286;2023-03-01T15:46:21;10.90;60.40
5461;DHT22;2753;49.196;8.286;2023-03-01T15:48:52;10.70;60.20
5461;DHT22;2753;49.196;8.286;2023-03-01T15:51:23;10.50;61.00
5461;DHT22;2753;49.196;8.286;2023-03-01T15:53:53;10.40;61.00
5461;DHT22;2753;49.196;8.286;2023-03-01T15:56:19;10.50;61.10
5461;DHT22;2753;49.196;8.286;2023-03-01T15:58:44;10.40;61.10
5461;DHT22;2753;49.196;8.286;2023-03-01T16:01:15;10.20;61.20
5461;DHT22;2753;49.196;8.286;2023-03-01T16:03:42;10.20;61.10
5461;DHT22;2753;49.196;8.286;2023-03-01T16:06:09;10.10;61.90
5461;DHT22;2753;49.196;8.286;2023-03-01T16:08:36;10.00;61.80
5461;DHT22;2753;49.196;8.286;2023-03-01T16:11:03;10.00;62.50
5461;DHT22;2753;49.196;8.286;2023-03-01T16:13:31;9.90;63.60
5461;DHT22;2753;49.196;8.286;2023-03-01T16:15:58;9.90;63.90
5461;DHT22;2753;49.196;8.286;2023-03-01T16:18:24;9.60;64.00
5461;DHT22;2753;49.196;8.286;2023-03-01T16:20:49;9.60;64.60
5461;DHT22;2753;49.196;8.286;2023-03-01T16:23:15;9.40;64.70
5461;DHT22;2753;49.196;8.286;2023-03-01T16:25:41;9.30;65.30
5461;DHT22;2753;49.196;8.286;2023-03-01T16:28:07;9.40;65.40
5461;DHT22;2753;49.196;8.286;2023-03-01T16:30:37;9.40;65.70
5461;DHT22;2753;49.196;8.286;2023-03-01T16:33:03;9.50;65.90
5461;DHT22;2753;49.196;8.286;2023-03-01T16:35:32;9.40;65.70
5461;DHT22;2753;49.196;8.286;2023-03-01T16:37:59;9.30;65.80
5461;DHT22;2753;49.196;8.286;2023-03-01T16:40:29;9.00;65.90
5461;DHT22;2753;49.196;8.286;2023-03-01T16:42:56;9.10;66.40
5461;DHT22;2753;49.196;8.286;2023-03-01T16:45:28;9.10;66.40
5461;DHT22;2753;49.196;8.286;2023-03-01T16:47:53;8.90;66.60
5461;DHT22;2753;49.196;8.286;2023-03-01T16:50:19;8.80;66.70
5461;DHT22;2753;49.196;8.286;2023-03-01T16:52:45;8.80;67.00
5461;DHT22;2753;49.196;8.286;2023-03-01T16:55:11;8.70;67.20
5461;DHT22;2753;49.196;8.286;2023-03-01T16:57:37;8.70;67.30
5461;DHT22;2753;49.196;8.286;2023-03-01T17:00:07;8.60;67.40
5461;DHT22;2753;49.196;8.286;2023-03-01T17:02:38;8.60;67.50
5461;DHT22;2753;49.196;8.286;2023-03-01T17:05:04;8.50;67.70
5461;DHT22;2753;49.196;8.286;2023-03-01T17:07:32;8.40;67.90
5461;DHT22;2753;49.196;8.286;2023-03-01T17:10:03;8.30;67.90
5461;DHT22;2753;49.196;8.286;2023-03-01T17:12:29;8.40;68.10
5461;DHT22;2753;49.196;8.286;2023-03-01T17:14:54;8.30;68.20
5461;DHT22;2753;49.196;8.286;2023-03-01T17:17:20;8.30;68.30
5461;DHT22;2753;49.196;8.286;2023-03-01T17:19:46;8.40;68.30
5461;DHT22;2753;49.196;8.286;2023-03-01T17:22:11;8.40;68.20
5461;DHT22;2753;49.196;8.286;2023-03-01T17:24:39;8.40;68.30
5461;DHT22;2753;49.196;8.286;2023-03-01T17:27:06;8.40;68.30
5461;DHT22;2753;49.196;8.286;2023-03-01T17:29:32;8.30;68.30
5461;DHT22;2753;49.196;8.286;2023-03-01T17:31:58;8.20;68.30
5461;DHT22;2753;49.196;8.286;2023-03-01T17:34:24;8.20;68.40
5461;DHT22;2753;49.196;8.286;2023-03-01T17:36:50;8.30;68.60
5461;DHT22;2753;49.196;8.286;2023-03-01T17:39:17;8.20;68.60
5461;DHT22;2753;49.196;8.286;2023-03-01T17:41:45;8.20;68.60
5461;DHT22;2753;49.196;8.286;2023-03-01T17:44:10;8.20;68.70
5461;DHT22;2753;49.196;8.286;2023-03-01T17:46:36;8.20;68.80
5461;DHT22;2753;49.196;8.286;2023-03-01T17:49:02;8.20;68.80
5461;DHT22;2753;49.196;8.286;2023-03-01T17:51:28;8.10;68.90
5461;DHT22;2753;49.196;8.286;2023-03-01T17:53:54;8.00;69.10
5461;DHT22;2753;49.196;8.286;2023-03-01T17:56:19;7.90;69.20
5461;DHT22;2753;49.196;8.286;2023-03-01T17:58:45;7.90;69.30
5461;DHT22;2753;49.196;8.286;2023-03-01T18:01:19;7.80;69.30
5461;DHT22;2753;49.196;8.286;2023-03-01T18:03:45;7.70;69.50
5461;DHT22;2753;49.196;8.286;2023-03-01T18:06:13;7.60;69.70
5461;DHT22;2753;49.196;8.286;2023-03-01T18:08:38;7.60;69.80
5461;DHT22;2753;49.196;8.286;2023-03-01T18:11:04;7.60;70.00
5461;DHT22;2753;49.196;8.286;2023-03-01T18:13:30;7.50;70.00
5461;DHT22;2753;49.196;8.286;2023-03-01T18:15:55;7.40;70.20
5461;DHT22;2753;49.196;8.286;2023-03-01T18:18:26;7.40;70.40
5461;DHT22;2753;49.196;8.286;2023-03-01T18:20:56;7.40;70.40
5461;DHT22;2753;49.196;8.286;2023-03-01T18:23:23;7.40;70.40
5461;DHT22;2753;49.196;8.286;2023-03-01T18:25:48;7.30;70.50
5461;DHT22;2753;49.196;8.286;2023-03-01T18:28:14;7.30;70.70
5461;DHT22;2753;49.196;8.286;2023-03-01T18:30:40;7.20;70.70